sensor_id;sensor_type;location;lat;lon;timestamp;P1;durP1;ratioP1;P2;durP2;ratioP2
61435;SDS011;47304;47.456;19.160;2023-05-10T00:02:03;6.80;;;2.80;;
61435;SDS011;47304;47.456;19.160;2023-05-10T00:04:30;6.30;;;2.90;;
61435;SDS011;47304;47.456;19.160;2023-05-10T00:06:56;7.70;;;3.10;;
61435;SDS011;47304;47.456;19.160;2023-05-10T00:09:23;6.10;;;2.70;;
61435;SDS011;47304;47.456;19.160;2023-05-10T00:11:49;8.00;;;3.10;;
61435;SDS011;47304;47.456;19.160;2023-05-10T00:14:16;6.60;;;3.00;;
61435;SDS011;47304;47.456;19.160;2023-05-10T00:16:43;6.00;;;2.80;;
61435;SDS011;47304;47.456;19.160;2023-05-10T00:19:09;6.20;;;2.80;;
61435;SDS011;47304;47.456;19.160;2023-05-10T00:21:36;7.00;;;3.00;;
61435;SDS011;47304;47.456;19.160;2023-05-10T00:24:02;9.10;;;3.30;;
61435;SDS011;47304;47.456;19.160;2023-05-10T00:26:29;7.00;;;2.80;;
61435;SDS011;47304;47.456;19.160;2023-05-10T00:28:56;5.80;;;2.60;;
61435;SDS011;47304;47.456;19.160;2023-05-10T00:31:22;8.90;;;3.00;;
61435;SDS011;47304;47.456;19.160;2023-05-10T00:33:49;6.40;;;2.70;;
61435;SDS011;47304;47.456;19.160;2023-05-10T00:36:15;6.70;;;3.30;;
61435;SDS011;47304;47.456;19.160;2023-05-10T00:38:42;6.80;;;3.10;;
61435;SDS011;47304;47.456;19.160;2023-05-10T00:41:08;7.60;;;3.20;;
61435;SDS011;47304;47.456;19.160;2023-05-10T00:43:35;16.60;;;3.30;;
61435;SDS011;47304;47.456;19.160;2023-05-10T00:46:01;6.20;;;2.80;;
61435;SDS011;47304;47.456;19.160;2023-05-10T00:48:28;8.10;;;3.60;;
61435;SDS011;47304;47.456;19.160;2023-05-10T00:50:55;7.60;;;3.20;;
61435;SDS011;47304;47.456;19.160;2023-05-10T00:53:22;6.80;;;3.30;;
61435;SDS011;47304;47.456;19.160;2023-05-10T00:55:49;7.40;;;3.30;;
61435;SDS011;47304;47.456;19.160;2023-05-10T00:58:15;6.90;;;3.20;;
61435;SDS011;47304;47.456;19.160;2023-05-10T01:00:42;7.30;;;3.20;;
61435;SDS011;47304;47.456;19.160;2023-05-10T01:03:11;6.20;;;3.20;;
61435;SDS011;47304;47.456;19.160;2023-05-10T01:05:38;7.00;;;3.10;;
61435;SDS011;47304;47.456;19.160;2023-05-10T01:08:05;7.80;;;3.10;;
61435;SDS011;47304;47.456;19.160;2023-05-10T01:10:31;9.30;;;3.60;;
61435;SDS011;47304;47.456;19.160;2023-05-10T01:12:58;7.00;;;3.20;;
61435;SDS011;47304;47.456;19.160;2023-05-10T01:15:26;7.00;;;3.40;;
61435;SDS011;47304;47.456;19.160;2023-05-10T01:17:53;9.40;;;3.60;;
61435;SDS011;47304;47.456;19.160;2023-05-10T01:20:19;7.50;;;3.40;;
61435;SDS011;47304;47.456;19.160;2023-05-10T01:36:48;7.20;;;3.10;;
61435;SDS011;47304;47.456;19.160;2023-05-10T01:39:20;7.00;;;3.20;;
61435;SDS011;47304;47.456;19.160;2023-05-10T01:44:46;8.00;;;3.60;;
61435;SDS011;47304;47.456;19.160;2023-05-10T01:47:23;8.10;;;3.20;;
61435;SDS011;47304;47.456;19.160;2023-05-10T01:49:57;7.40;;;3.50;;
61435;SDS011;47304;47.456;19.160;2023-05-10T01:52:33;7.70;;;3.30;;
61435;SDS011;47304;47.456;19.160;2023-05-10T01:55:13;7.50;;;3.50;;
61435;SDS011;47304;47.456;19.160;2023-05-10T01:57:42;6.20;;;3.10;;
61435;SDS011;47304;47.456;19.160;2023-05-10T02:00:10;6.80;;;3.00;;
61435;SDS011;47304;47.456;19.160;2023-05-10T02:02:44;8.30;;;3.50;;
61435;SDS011;47304;47.456;19.160;2023-05-10T02:05:13;7.70;;;3.50;;
61435;SDS011;47304;47.456;19.160;2023-05-10T02:07:41;8.20;;;3.50;;
61435;SDS011;47304;47.456;19.160;2023-05-10T02:10:09;8.50;;;3.80;;
61435;SDS011;47304;47.456;19.160;2023-05-10T02:12:40;6.70;;;3.30;;
61435;SDS011;47304;47.456;19.160;2023-05-10T02:15:10;7.90;;;3.80;;
61435;SDS011;47304;47.456;19.160;2023-05-10T02:17:39;10.20;;;3.60;;
61435;SDS011;47304;47.456;19.160;2023-05-10T02:20:06;7.60;;;3.50;;
61435;SDS011;47304;47.456;19.160;2023-05-10T02:22:35;7.00;;;3.10;;
61435;SDS011;47304;47.456;19.160;2023-05-10T02:25:02;7.30;;;3.00;;
61435;SDS011;47304;47.456;19.160;2023-05-10T02:27:30;7.60;;;3.70;;
61435;SDS011;47304;47.456;19.160;2023-05-10T02:29:57;8.10;;;3.70;;
61435;SDS011;47304;47.456;19.160;2023-05-10T02:32:24;7.30;;;3.20;;
61435;SDS011;47304;47.456;19.160;2023-05-10T02:34:53;6.70;;;3.30;;
61435;SDS011;47304;47.456;19.160;2023-05-10T02:37:22;6.90;;;3.60;;
61435;SDS011;47304;47.456;19.160;2023-05-10T02:39:50;7.00;;;3.30;;
61435;SDS011;47304;47.456;19.160;2023-05-10T02:42:18;8.20;;;3.40;;
61435;SDS011;47304;47.456;19.160;2023-05-10T02:44:50;7.50;;;3.40;;
61435;SDS011;47304;47.456;19.160;2023-05-10T02:47:19;8.90;;;3.70;;
61435;SDS011;47304;47.456;19.160;2023-05-10T02:49:45;6.20;;;3.30;;
61435;SDS011;47304;47.456;19.160;2023-05-10T02:52:12;8.80;;;3.50;;
61435;SDS011;47304;47.456;19.160;2023-05-10T02:54:46;8.10;;;3.40;;
61435;SDS011;47304;47.456;19.160;2023-05-10T02:57:16;8.20;;;3.40;;
61435;SDS011;47304;47.456;19.160;2023-05-10T02:59:47;7.50;;;3.50;;
61435;SDS011;47304;47.456;19.160;2023-05-10T03:02:14;7.40;;;3.60;;
61435;SDS011;47304;47.456;19.160;2023-05-10T03:04:40;6.70;;;3.30;;
61435;SDS011;47304;47.456;19.160;2023-05-10T03:07:07;8.50;;;3.40;;
61435;SDS011;47304;47.456;19.160;2023-05-10T03:09:34;7.90;;;3.60;;
61435;SDS011;47304;47.456;19.160;2023-05-10T03:12:03;7.60;;;3.70;;
61435;SDS011;47304;47.456;19.160;2023-05-10T03:17:29;8.90;;;4.00;;
61435;SDS011;47304;47.456;19.160;2023-05-10T03:20:47;8.40;;;3.70;;
61435;SDS011;47304;47.456;19.160;2023-05-10T03:22:55;8.40;;;4.00;;
61435;SDS011;47304;47.456;19.160;2023-05-10T03:25:28;10.00;;;4.80;;
61435;SDS011;47304;47.456;19.160;2023-05-10T03:27:57;7.80;;;3.80;;
61435;SDS011;47304;47.456;19.160;2023-05-10T03:30:25;12.90;;;4.30;;
61435;SDS011;47304;47.456;19.160;2023-05-10T03:32:52;7.80;;;3.70;;
61435;SDS011;47304;47.456;19.160;2023-05-10T03:35:18;8.90;;;3.60;;
61435;SDS011;47304;47.456;19.160;2023-05-10T03:37:45;7.50;;;3.50;;
61435;SDS011;47304;47.456;19.160;2023-05-10T03:40:11;7.40;;;3.60;;
61435;SDS011;47304;47.456;19.160;2023-05-10T03:42:38;8.60;;;3.80;;
61435;SDS011;47304;47.456;19.160;2023-05-10T03:45:05;10.00;;;3.80;;
61435;SDS011;47304;47.456;19.160;2023-05-10T03:47:32;10.40;;;3.70;;
61435;SDS011;47304;47.456;19.160;2023-05-10T03:49:59;7.70;;;3.90;;
61435;SDS011;47304;47.456;19.160;2023-05-10T03:52:25;7.80;;;3.90;;
61435;SDS011;47304;47.456;19.160;2023-05-10T03:54:52;6.90;;;3.70;;
61435;SDS011;47304;47.456;19.160;2023-05-10T03:57:18;8.90;;;4.40;;
61435;SDS011;47304;47.456;19.160;2023-05-10T03:59:45;7.80;;;3.90;;
61435;SDS011;47304;47.456;19.160;2023-05-10T04:02:11;7.50;;;4.00;;
61435;SDS011;47304;47.456;19.160;2023-05-10T04:04:38;8.50;;;3.90;;
61435;SDS011;47304;47.456;19.160;2023-05-10T04:07:04;7.60;;;3.80;;
61435;SDS011;47304;47.456;19.160;2023-05-10T04:09:31;10.10;;;4.10;;
61435;SDS011;47304;47.456;19.160;2023-05-10T04:11:58;7.40;;;4.30;;
61435;SDS011;47304;47.456;19.160;2023-05-10T04:14:25;9.60;;;4.10;;
61435;SDS011;47304;47.456;19.160;2023-05-10T04:16:51;9.10;;;4.40;;
61435;SDS011;47304;47.456;19.160;2023-05-10T04:19:18;7.90;;;3.90;;
61435;SDS011;47304;47.456;19.160;2023-05-10T04:21:44;7.20;;;3.60;;
61435;SDS011;47304;47.456;19.160;2023-05-10T04:24:11;8.70;;;3.50;;
61435;SDS011;47304;47.456;19.160;2023-05-10T04:26:38;7.80;;;4.20;;
61435;SDS011;47304;47.456;19.160;2023-05-10T04:29:05;10.10;;;4.20;;
61435;SDS011;47304;47.456;19.160;2023-05-10T04:31:32;7.90;;;4.00;;
61435;SDS011;47304;47.456;19.160;2023-05-10T04:33:58;8.00;;;4.30;;
61435;SDS011;47304;47.456;19.160;2023-05-10T04:36:25;9.60;;;4.40;;
61435;SDS011;47304;47.456;19.160;2023-05-10T04:38:51;10.50;;;4.10;;
61435;SDS011;47304;47.456;19.160;2023-05-10T04:41:18;7.90;;;4.40;;
61435;SDS011;47304;47.456;19.160;2023-05-10T04:43:44;8.90;;;4.30;;
61435;SDS011;47304;47.456;19.160;2023-05-10T04:46:11;7.50;;;3.80;;
61435;SDS011;47304;47.456;19.160;2023-05-10T04:48:37;8.90;;;4.40;;
61435;SDS011;47304;47.456;19.160;2023-05-10T04:51:04;8.30;;;4.60;;
61435;SDS011;47304;47.456;19.160;2023-05-10T04:53:30;9.70;;;4.60;;
61435;SDS011;47304;47.456;19.160;2023-05-10T04:55:57;7.80;;;4.20;;
61435;SDS011;47304;47.456;19.160;2023-05-10T04:58:23;8.90;;;4.50;;
61435;SDS011;47304;47.456;19.160;2023-05-10T05:00:50;10.90;;;4.60;;
61435;SDS011;47304;47.456;19.160;2023-05-10T05:03:16;8.60;;;4.50;;
61435;SDS011;47304;47.456;19.160;2023-05-10T05:05:43;8.40;;;4.30;;
61435;SDS011;47304;47.456;19.160;2023-05-10T05:08:10;8.50;;;4.40;;
61435;SDS011;47304;47.456;19.160;2023-05-10T05:10:36;8.10;;;4.70;;
61435;SDS011;47304;47.456;19.160;2023-05-10T05:13:03;10.40;;;4.60;;
61435;SDS011;47304;47.456;19.160;2023-05-10T05:15:29;10.10;;;5.10;;
61435;SDS011;47304;47.456;19.160;2023-05-10T05:17:56;10.00;;;5.40;;
61435;SDS011;47304;47.456;19.160;2023-05-10T05:20:22;9.10;;;5.00;;
61435;SDS011;47304;47.456;19.160;2023-05-10T05:22:49;9.10;;;4.80;;
61435;SDS011;47304;47.456;19.160;2023-05-10T05:25:15;9.40;;;5.20;;
61435;SDS011;47304;47.456;19.160;2023-05-10T05:27:42;9.10;;;4.70;;
61435;SDS011;47304;47.456;19.160;2023-05-10T05:30:09;8.80;;;4.80;;
61435;SDS011;47304;47.456;19.160;2023-05-10T05:32:35;8.90;;;4.80;;
61435;SDS011;47304;47.456;19.160;2023-05-10T05:35:02;7.90;;;4.20;;
61435;SDS011;47304;47.456;19.160;2023-05-10T05:37:29;8.40;;;4.60;;
61435;SDS011;47304;47.456;19.160;2023-05-10T05:39:55;9.00;;;4.80;;
61435;SDS011;47304;47.456;19.160;2023-05-10T05:42:21;10.40;;;4.90;;
61435;SDS011;47304;47.456;19.160;2023-05-10T05:44:48;11.00;;;5.40;;
61435;SDS011;47304;47.456;19.160;2023-05-10T05:47:14;20.50;;;10.00;;
61435;SDS011;47304;47.456;19.160;2023-05-10T05:49:41;11.00;;;5.30;;
61435;SDS011;47304;47.456;19.160;2023-05-10T05:52:07;8.30;;;4.60;;
61435;SDS011;47304;47.456;19.160;2023-05-10T05:54:34;8.60;;;5.00;;
61435;SDS011;47304;47.456;19.160;2023-05-10T05:57:00;10.10;;;4.50;;
61435;SDS011;47304;47.456;19.160;2023-05-10T05:59:27;10.50;;;4.90;;
61435;SDS011;47304;47.456;19.160;2023-05-10T06:01:54;10.30;;;4.90;;
61435;SDS011;47304;47.456;19.160;2023-05-10T06:04:21;8.80;;;4.70;;
61435;SDS011;47304;47.456;19.160;2023-05-10T06:06:47;9.60;;;5.10;;
61435;SDS011;47304;47.456;19.160;2023-05-10T06:09:14;8.70;;;4.20;;
61435;SDS011;47304;47.456;19.160;2023-05-10T06:11:40;11.30;;;5.50;;
61435;SDS011;47304;47.456;19.160;2023-05-10T06:14:07;9.30;;;5.00;;
61435;SDS011;47304;47.456;19.160;2023-05-10T06:16:34;9.70;;;5.80;;
61435;SDS011;47304;47.456;19.160;2023-05-10T06:19:01;9.20;;;5.30;;
61435;SDS011;47304;47.456;19.160;2023-05-10T06:21:28;9.50;;;5.20;;
61435;SDS011;47304;47.456;19.160;2023-05-10T06:23:54;11.60;;;6.40;;
61435;SDS011;47304;47.456;19.160;2023-05-10T06:26:21;13.40;;;7.80;;
61435;SDS011;47304;47.456;19.160;2023-05-10T06:28:47;10.50;;;6.10;;
61435;SDS011;47304;47.456;19.160;2023-05-10T06:31:14;11.30;;;5.80;;
61435;SDS011;47304;47.456;19.160;2023-05-10T06:33:40;9.90;;;5.60;;
61435;SDS011;47304;47.456;19.160;2023-05-10T06:36:07;8.20;;;4.60;;
61435;SDS011;47304;47.456;19.160;2023-05-10T06:38:34;11.80;;;6.00;;
61435;SDS011;47304;47.456;19.160;2023-05-10T06:41:00;8.30;;;4.50;;
61435;SDS011;47304;47.456;19.160;2023-05-10T06:43:27;8.60;;;5.00;;
61435;SDS011;47304;47.456;19.160;2023-05-10T06:45:53;10.60;;;5.30;;
61435;SDS011;47304;47.456;19.160;2023-05-10T06:48:20;13.50;;;7.20;;
61435;SDS011;47304;47.456;19.160;2023-05-10T06:50:47;8.90;;;4.70;;
61435;SDS011;47304;47.456;19.160;2023-05-10T06:53:13;10.60;;;5.20;;
61435;SDS011;47304;47.456;19.160;2023-05-10T06:55:40;7.10;;;4.20;;
61435;SDS011;47304;47.456;19.160;2023-05-10T06:58:06;9.10;;;4.40;;
61435;SDS011;47304;47.456;19.160;2023-05-10T07:00:33;8.30;;;4.30;;
61435;SDS011;47304;47.456;19.160;2023-05-10T07:03:00;9.00;;;5.10;;
61435;SDS011;47304;47.456;19.160;2023-05-10T07:05:27;9.00;;;4.90;;
61435;SDS011;47304;47.456;19.160;2023-05-10T07:07:53;10.30;;;4.80;;
61435;SDS011;47304;47.456;19.160;2023-05-10T07:10:20;8.30;;;4.50;;
61435;SDS011;47304;47.456;19.160;2023-05-10T07:12:46;8.10;;;4.10;;
61435;SDS011;47304;47.456;19.160;2023-05-10T07:15:13;8.00;;;4.50;;
61435;SDS011;47304;47.456;19.160;2023-05-10T07:17:39;8.90;;;4.70;;
61435;SDS011;47304;47.456;19.160;2023-05-10T07:20:10;8.10;;;4.20;;
61435;SDS011;47304;47.456;19.160;2023-05-10T07:22:36;8.20;;;4.20;;
61435;SDS011;47304;47.456;19.160;2023-05-10T07:25:03;6.20;;;3.00;;
61435;SDS011;47304;47.456;19.160;2023-05-10T07:27:30;9.10;;;4.80;;
61435;SDS011;47304;47.456;19.160;2023-05-10T07:29:56;11.90;;;6.70;;
61435;SDS011;47304;47.456;19.160;2023-05-10T07:32:23;10.70;;;4.30;;
61435;SDS011;47304;47.456;19.160;2023-05-10T07:34:50;9.00;;;4.10;;
61435;SDS011;47304;47.456;19.160;2023-05-10T07:37:16;8.70;;;4.30;;
61435;SDS011;47304;47.456;19.160;2023-05-10T07:39:43;10.10;;;4.60;;
61435;SDS011;47304;47.456;19.160;2023-05-10T07:42:09;7.50;;;4.00;;
61435;SDS011;47304;47.456;19.160;2023-05-10T07:44:35;9.80;;;4.20;;
61435;SDS011;47304;47.456;19.160;2023-05-10T07:47:02;7.90;;;3.60;;
61435;SDS011;47304;47.456;19.160;2023-05-10T07:49:29;10.30;;;5.10;;
61435;SDS011;47304;47.456;19.160;2023-05-10T07:51:55;10.10;;;4.20;;
61435;SDS011;47304;47.456;19.160;2023-05-10T07:54:22;7.40;;;4.20;;
61435;SDS011;47304;47.456;19.160;2023-05-10T07:56:48;7.30;;;3.90;;
61435;SDS011;47304;47.456;19.160;2023-05-10T07:59:17;8.50;;;4.20;;
61435;SDS011;47304;47.456;19.160;2023-05-10T08:01:44;8.00;;;3.90;;
61435;SDS011;47304;47.456;19.160;2023-05-10T08:04:11;9.30;;;3.70;;
61435;SDS011;47304;47.456;19.160;2023-05-10T08:06:38;7.20;;;3.80;;
61435;SDS011;47304;47.456;19.160;2023-05-10T08:09:06;8.60;;;3.90;;
61435;SDS011;47304;47.456;19.160;2023-05-10T08:11:32;7.10;;;4.10;;
61435;SDS011;47304;47.456;19.160;2023-05-10T08:14:00;8.50;;;4.40;;
61435;SDS011;47304;47.456;19.160;2023-05-10T08:16:27;13.40;;;4.70;;
61435;SDS011;47304;47.456;19.160;2023-05-10T08:18:54;7.50;;;3.70;;
61435;SDS011;47304;47.456;19.160;2023-05-10T08:21:20;8.30;;;4.20;;
61435;SDS011;47304;47.456;19.160;2023-05-10T08:23:47;8.80;;;4.00;;
61435;SDS011;47304;47.456;19.160;2023-05-10T08:26:13;7.70;;;4.40;;
61435;SDS011;47304;47.456;19.160;2023-05-10T08:28:40;7.80;;;3.80;;
61435;SDS011;47304;47.456;19.160;2023-05-10T08:31:06;9.20;;;4.20;;
61435;SDS011;47304;47.456;19.160;2023-05-10T08:33:33;8.60;;;4.10;;
61435;SDS011;47304;47.456;19.160;2023-05-10T08:35:59;9.40;;;4.40;;
61435;SDS011;47304;47.456;19.160;2023-05-10T08:38:26;9.00;;;4.10;;
61435;SDS011;47304;47.456;19.160;2023-05-10T08:40:53;7.50;;;4.00;;
61435;SDS011;47304;47.456;19.160;2023-05-10T08:43:21;7.80;;;4.00;;
61435;SDS011;47304;47.456;19.160;2023-05-10T08:45:50;10.40;;;4.20;;
61435;SDS011;47304;47.456;19.160;2023-05-10T08:48:19;8.90;;;5.10;;
61435;SDS011;47304;47.456;19.160;2023-05-10T08:50:50;9.40;;;3.90;;
61435;SDS011;47304;47.456;19.160;2023-05-10T08:53:19;8.00;;;4.00;;
61435;SDS011;47304;47.456;19.160;2023-05-10T08:55:47;7.90;;;4.00;;
61435;SDS011;47304;47.456;19.160;2023-05-10T08:58:13;9.20;;;3.70;;
61435;SDS011;47304;47.456;19.160;2023-05-10T09:00:40;7.60;;;4.00;;
61435;SDS011;47304;47.456;19.160;2023-05-10T09:03:07;8.50;;;3.60;;
61435;SDS011;47304;47.456;19.160;2023-05-10T09:05:33;7.60;;;3.60;;
61435;SDS011;47304;47.456;19.160;2023-05-10T09:08:02;8.00;;;4.10;;
61435;SDS011;47304;47.456;19.160;2023-05-10T09:10:29;7.80;;;4.00;;
61435;SDS011;47304;47.456;19.160;2023-05-10T09:12:57;7.60;;;3.80;;
61435;SDS011;47304;47.456;19.160;2023-05-10T09:15:24;7.30;;;3.90;;
61435;SDS011;47304;47.456;19.160;2023-05-10T09:17:52;8.00;;;3.60;;
61435;SDS011;47304;47.456;19.160;2023-05-10T09:20:19;8.70;;;4.00;;
61435;SDS011;47304;47.456;19.160;2023-05-10T09:22:45;7.90;;;4.20;;
61435;SDS011;47304;47.456;19.160;2023-05-10T09:25:12;6.90;;;3.40;;
61435;SDS011;47304;47.456;19.160;2023-05-10T09:27:41;7.60;;;4.20;;
61435;SDS011;47304;47.456;19.160;2023-05-10T09:30:11;8.90;;;3.60;;
61435;SDS011;47304;47.456;19.160;2023-05-10T09:35:17;6.90;;;3.80;;
61435;SDS011;47304;47.456;19.160;2023-05-10T09:37:45;7.40;;;3.90;;
61435;SDS011;47304;47.456;19.160;2023-05-10T09:40:14;7.50;;;4.00;;
61435;SDS011;47304;47.456;19.160;2023-05-10T09:42:42;8.20;;;3.50;;
61435;SDS011;47304;47.456;19.160;2023-05-10T09:45:16;7.90;;;3.50;;
61435;SDS011;47304;47.456;19.160;2023-05-10T09:47:44;7.90;;;3.70;;
61435;SDS011;47304;47.456;19.160;2023-05-10T09:50:11;7.40;;;3.40;;
61435;SDS011;47304;47.456;19.160;2023-05-10T09:52:51;6.60;;;3.50;;
61435;SDS011;47304;47.456;19.160;2023-05-10T09:55:24;7.10;;;3.70;;
61435;SDS011;47304;47.456;19.160;2023-05-10T09:58:07;8.20;;;3.60;;
61435;SDS011;47304;47.456;19.160;2023-05-10T10:00:34;8.50;;;3.60;;
61435;SDS011;47304;47.456;19.160;2023-05-10T10:03:05;7.70;;;3.10;;
61435;SDS011;47304;47.456;19.160;2023-05-10T10:05:33;8.10;;;3.50;;
61435;SDS011;47304;47.456;19.160;2023-05-10T10:08:02;7.10;;;3.30;;
61435;SDS011;47304;47.456;19.160;2023-05-10T10:10:30;9.10;;;3.60;;
61435;SDS011;47304;47.456;19.160;2023-05-10T10:12:58;6.20;;;3.20;;
61435;SDS011;47304;47.456;19.160;2023-05-10T10:15:25;8.80;;;2.90;;
61435;SDS011;47304;47.456;19.160;2023-05-10T10:17:52;7.60;;;2.90;;
61435;SDS011;47304;47.456;19.160;2023-05-10T10:20:21;7.80;;;3.30;;
61435;SDS011;47304;47.456;19.160;2023-05-10T10:22:48;6.20;;;2.90;;
61435;SDS011;47304;47.456;19.160;2023-05-10T10:25:16;6.70;;;2.70;;
61435;SDS011;47304;47.456;19.160;2023-05-10T10:28:33;6.40;;;2.70;;
61435;SDS011;47304;47.456;19.160;2023-05-10T10:30:48;6.60;;;3.10;;
61435;SDS011;47304;47.456;19.160;2023-05-10T10:36:15;6.90;;;2.80;;
61435;SDS011;47304;47.456;19.160;2023-05-10T10:49:33;7.70;;;3.00;;
61435;SDS011;47304;47.456;19.160;2023-05-10T10:54:56;5.90;;;2.80;;
61435;SDS011;47304;47.456;19.160;2023-05-10T10:57:24;5.90;;;2.70;;
61435;SDS011;47304;47.456;19.160;2023-05-10T10:59:51;6.70;;;2.70;;
61435;SDS011;47304;47.456;19.160;2023-05-10T11:02:33;4.20;;;2.10;;
61435;SDS011;47304;47.456;19.160;2023-05-10T11:07:55;7.20;;;2.80;;
61435;SDS011;47304;47.456;19.160;2023-05-10T11:10:24;7.00;;;2.60;;
61435;SDS011;47304;47.456;19.160;2023-05-10T11:13:04;5.40;;;2.40;;
61435;SDS011;47304;47.456;19.160;2023-05-10T11:15:37;5.60;;;2.40;;
61435;SDS011;47304;47.456;19.160;2023-05-10T11:21:04;6.80;;;2.40;;
61435;SDS011;47304;47.456;19.160;2023-05-10T11:26:10;5.10;;;2.30;;
61435;SDS011;47304;47.456;19.160;2023-05-10T11:28:47;6.40;;;2.30;;
61435;SDS011;47304;47.456;19.160;2023-05-10T11:31:19;6.10;;;2.40;;
61435;SDS011;47304;47.456;19.160;2023-05-10T11:33:50;5.30;;;2.30;;
61435;SDS011;47304;47.456;19.160;2023-05-10T11:36:18;7.50;;;2.60;;
61435;SDS011;47304;47.456;19.160;2023-05-10T11:38:49;5.70;;;2.40;;
61435;SDS011;47304;47.456;19.160;2023-05-10T11:41:17;6.10;;;2.40;;
61435;SDS011;47304;47.456;19.160;2023-05-10T11:43:49;6.00;;;2.60;;
61435;SDS011;47304;47.456;19.160;2023-05-10T11:46:18;4.90;;;2.70;;
61435;SDS011;47304;47.456;19.160;2023-05-10T11:48:46;5.60;;;2.70;;
61435;SDS011;47304;47.456;19.160;2023-05-10T11:51:19;4.90;;;2.40;;
61435;SDS011;47304;47.456;19.160;2023-05-10T11:53:46;9.00;;;3.00;;
61435;SDS011;47304;47.456;19.160;2023-05-10T11:56:13;6.00;;;2.80;;
61435;SDS011;47304;47.456;19.160;2023-05-10T11:58:40;5.50;;;2.60;;
61435;SDS011;47304;47.456;19.160;2023-05-10T12:01:07;5.20;;;2.30;;
61435;SDS011;47304;47.456;19.160;2023-05-10T12:03:35;5.70;;;2.60;;
61435;SDS011;47304;47.456;19.160;2023-05-10T12:06:02;6.20;;;2.60;;
61435;SDS011;47304;47.456;19.160;2023-05-10T12:08:29;5.20;;;2.20;;
61435;SDS011;47304;47.456;19.160;2023-05-10T12:11:09;7.80;;;2.70;;
61435;SDS011;47304;47.456;19.160;2023-05-10T12:13:42;4.90;;;2.40;;
61435;SDS011;47304;47.456;19.160;2023-05-10T12:16:17;7.20;;;2.60;;
61435;SDS011;47304;47.456;19.160;2023-05-10T12:18:45;7.80;;;2.70;;
61435;SDS011;47304;47.456;19.160;2023-05-10T12:21:15;4.90;;;2.40;;
61435;SDS011;47304;47.456;19.160;2023-05-10T12:23:41;5.60;;;2.80;;
61435;SDS011;47304;47.456;19.160;2023-05-10T12:26:09;5.60;;;2.50;;
61435;SDS011;47304;47.456;19.160;2023-05-10T12:28:36;5.30;;;2.30;;
61435;SDS011;47304;47.456;19.160;2023-05-10T12:31:05;5.10;;;2.40;;
61435;SDS011;47304;47.456;19.160;2023-05-10T12:33:42;7.20;;;2.30;;
61435;SDS011;47304;47.456;19.160;2023-05-10T12:36:10;7.10;;;2.50;;
61435;SDS011;47304;47.456;19.160;2023-05-10T12:38:39;7.20;;;2.70;;
61435;SDS011;47304;47.456;19.160;2023-05-10T12:41:07;6.80;;;2.20;;
61435;SDS011;47304;47.456;19.160;2023-05-10T12:43:35;5.70;;;2.50;;
61435;SDS011;47304;47.456;19.160;2023-05-10T12:46:09;5.00;;;2.30;;
61435;SDS011;47304;47.456;19.160;2023-05-10T12:48:36;4.40;;;2.30;;
61435;SDS011;47304;47.456;19.160;2023-05-10T12:51:05;5.40;;;2.10;;
61435;SDS011;47304;47.456;19.160;2023-05-10T12:53:32;5.70;;;2.20;;
61435;SDS011;47304;47.456;19.160;2023-05-10T12:55:58;3.70;;;2.00;;
61435;SDS011;47304;47.456;19.160;2023-05-10T12:58:25;4.60;;;2.00;;
61435;SDS011;47304;47.456;19.160;2023-05-10T13:01:01;4.90;;;2.20;;
61435;SDS011;47304;47.456;19.160;2023-05-10T13:03:28;4.30;;;2.00;;
61435;SDS011;47304;47.456;19.160;2023-05-10T13:05:55;4.60;;;2.10;;
61435;SDS011;47304;47.456;19.160;2023-05-10T13:08:21;3.70;;;1.90;;
61435;SDS011;47304;47.456;19.160;2023-05-10T13:10:48;6.70;;;2.10;;
61435;SDS011;47304;47.456;19.160;2023-05-10T13:13:15;5.10;;;2.10;;
61435;SDS011;47304;47.456;19.160;2023-05-10T13:15:41;5.50;;;2.40;;
61435;SDS011;47304;47.456;19.160;2023-05-10T13:18:08;6.30;;;2.70;;
61435;SDS011;47304;47.456;19.160;2023-05-10T13:20:34;5.10;;;2.00;;
61435;SDS011;47304;47.456;19.160;2023-05-10T13:23:01;8.20;;;2.20;;
61435;SDS011;47304;47.456;19.160;2023-05-10T13:25:27;7.10;;;2.10;;
61435;SDS011;47304;47.456;19.160;2023-05-10T13:27:54;4.70;;;2.10;;
61435;SDS011;47304;47.456;19.160;2023-05-10T13:30:24;3.50;;;1.80;;
61435;SDS011;47304;47.456;19.160;2023-05-10T13:32:51;6.50;;;2.10;;
61435;SDS011;47304;47.456;19.160;2023-05-10T13:35:18;5.50;;;2.00;;
61435;SDS011;47304;47.456;19.160;2023-05-10T13:37:45;5.40;;;2.30;;
61435;SDS011;47304;47.456;19.160;2023-05-10T13:40:11;7.80;;;2.10;;
61435;SDS011;47304;47.456;19.160;2023-05-10T13:42:38;5.20;;;2.00;;
61435;SDS011;47304;47.456;19.160;2023-05-10T13:45:04;5.40;;;2.20;;
61435;SDS011;47304;47.456;19.160;2023-05-10T13:47:31;5.80;;;2.30;;
61435;SDS011;47304;47.456;19.160;2023-05-10T13:49:58;5.60;;;2.00;;
61435;SDS011;47304;47.456;19.160;2023-05-10T13:52:25;6.80;;;2.00;;
61435;SDS011;47304;47.456;19.160;2023-05-10T13:54:52;4.20;;;1.90;;
61435;SDS011;47304;47.456;19.160;2023-05-10T13:57:18;4.60;;;1.80;;
61435;SDS011;47304;47.456;19.160;2023-05-10T13:59:45;4.60;;;2.00;;
61435;SDS011;47304;47.456;19.160;2023-05-10T14:02:11;3.20;;;1.80;;
61435;SDS011;47304;47.456;19.160;2023-05-10T14:04:38;3.30;;;1.70;;
61435;SDS011;47304;47.456;19.160;2023-05-10T14:07:05;4.90;;;1.90;;
61435;SDS011;47304;47.456;19.160;2023-05-10T14:09:32;4.30;;;1.70;;
61435;SDS011;47304;47.456;19.160;2023-05-10T14:11:58;4.00;;;1.80;;
61435;SDS011;47304;47.456;19.160;2023-05-10T14:14:25;3.10;;;1.70;;
61435;SDS011;47304;47.456;19.160;2023-05-10T14:16:51;3.20;;;1.60;;
61435;SDS011;47304;47.456;19.160;2023-05-10T14:19:18;4.20;;;1.90;;
61435;SDS011;47304;47.456;19.160;2023-05-10T14:21:44;9.50;;;2.10;;
61435;SDS011;47304;47.456;19.160;2023-05-10T14:24:11;4.20;;;1.90;;
61435;SDS011;47304;47.456;19.160;2023-05-10T14:26:37;5.50;;;1.90;;
61435;SDS011;47304;47.456;19.160;2023-05-10T14:29:04;3.30;;;1.80;;
61435;SDS011;47304;47.456;19.160;2023-05-10T14:31:31;5.00;;;2.20;;
61435;SDS011;47304;47.456;19.160;2023-05-10T14:33:57;3.80;;;2.00;;
61435;SDS011;47304;47.456;19.160;2023-05-10T14:36:24;6.30;;;2.00;;
61435;SDS011;47304;47.456;19.160;2023-05-10T14:38:51;4.20;;;2.00;;
61435;SDS011;47304;47.456;19.160;2023-05-10T14:41:17;6.30;;;2.00;;
61435;SDS011;47304;47.456;19.160;2023-05-10T14:43:44;4.10;;;2.00;;
61435;SDS011;47304;47.456;19.160;2023-05-10T14:46:10;4.00;;;1.80;;
61435;SDS011;47304;47.456;19.160;2023-05-10T14:48:37;7.20;;;1.70;;
61435;SDS011;47304;47.456;19.160;2023-05-10T14:51:03;5.60;;;1.80;;
61435;SDS011;47304;47.456;19.160;2023-05-10T14:53:30;4.50;;;1.90;;
61435;SDS011;47304;47.456;19.160;2023-05-10T14:55:56;3.30;;;1.70;;
61435;SDS011;47304;47.456;19.160;2023-05-10T14:58:23;4.40;;;1.70;;
61435;SDS011;47304;47.456;19.160;2023-05-10T15:00:49;4.80;;;2.00;;
61435;SDS011;47304;47.456;19.160;2023-05-10T15:03:16;5.70;;;2.00;;
61435;SDS011;47304;47.456;19.160;2023-05-10T15:05:44;3.80;;;1.60;;
61435;SDS011;47304;47.456;19.160;2023-05-10T15:08:10;3.60;;;1.90;;
61435;SDS011;47304;47.456;19.160;2023-05-10T15:10:37;3.80;;;1.90;;
61435;SDS011;47304;47.456;19.160;2023-05-10T15:13:03;3.80;;;1.70;;
61435;SDS011;47304;47.456;19.160;2023-05-10T15:15:30;3.90;;;1.90;;
61435;SDS011;47304;47.456;19.160;2023-05-10T15:17:57;3.20;;;1.70;;
61435;SDS011;47304;47.456;19.160;2023-05-10T15:20:23;3.90;;;1.80;;
61435;SDS011;47304;47.456;19.160;2023-05-10T15:22:50;3.70;;;1.80;;
61435;SDS011;47304;47.456;19.160;2023-05-10T15:25:16;4.60;;;1.80;;